Main page
METAR-TAF:

METAR-TAF

Airports :

Flughafen Lahr

Lahr, Germany

latitude: 48-22-09N, longitude: 007-49-40E, elevation: 156 m

Current weather observation

The report was made 24 minutes ago, at 17:20 UTC
Wind 5 kt from the South/Southeast
Temperature 9°C
Humidity 40%
Pressure 1016 hPa
Visibility 10 km or more
no clouds below 1500 m and no cumulonimbus

METAR: EDTL 281720Z 16005KT CAVOK 09/M04 Q1016

Time: 18:44 (17:44 UTC)

Forecast

The report was made 44 minutes ago, at 17:00 UTC
Forecast valid from 28 at 18 UTC to 28 at 24 UTC
Wind 8 kt from the South
Visibility 10 km or more
Scattered clouds at a height of 4000 ft

TAF: EDTL 281700Z 2818/2824 18008KT 9999 SCT040

Weather observations and forecasts of more than 4000 airports (METAR and TAF reports).

The available stations are represented by yellow and red dots on the map.

Hover mouse over dot to see the name of the station.

Then click to see weather observations and forecasts.

To change the map : click on the green buttons with a black cross to zoom in, on the green button with a dash to zoom out, or on the green arrows for adjacent maps.


METAR-TAF: